createdAt,value
2022-08-21T00:00:19.114Z,100.00
2022-08-21T00:02:55.362Z,100.00
2022-08-21T00:05:23.284Z,100.00
2022-08-21T00:07:49.837Z,100.00
2022-08-21T00:10:17.162Z,100.00
2022-08-21T00:12:44.301Z,100.00
2022-08-21T00:15:14.020Z,100.00
2022-08-21T00:17:40.617Z,100.00
2022-08-21T00:20:09.697Z,100.00
2022-08-21T00:22:36.937Z,100.00
2022-08-21T00:25:05.416Z,100.00
2022-08-21T00:27:31.836Z,100.00
2022-08-21T00:29:58.390Z,100.00
2022-08-21T00:32:26.245Z,100.00
2022-08-21T00:34:53.072Z,100.00
2022-08-21T00:37:19.860Z,100.00
2022-08-21T00:39:46.415Z,100.00
2022-08-21T00:42:15.889Z,100.00
2022-08-21T00:44:44.700Z,100.00
2022-08-21T00:47:11.758Z,100.00
2022-08-21T00:49:39.478Z,100.00
2022-08-21T00:52:08.504Z,100.00
2022-08-21T00:54:35.087Z,100.00
2022-08-21T00:57:06.339Z,100.00
2022-08-21T00:59:36.176Z,100.00
2022-08-21T01:02:03.288Z,100.00
2022-08-21T01:04:29.739Z,100.00
2022-08-21T01:06:56.169Z,100.00
2022-08-21T01:09:22.664Z,100.00
2022-08-21T01:11:49.206Z,100.00
2022-08-21T01:14:16.328Z,100.00
2022-08-21T01:16:46.103Z,100.00
2022-08-21T01:19:13.769Z,100.00
2022-08-21T01:21:40.396Z,100.00
2022-08-21T01:24:06.951Z,100.00
2022-08-21T01:26:38.164Z,100.00
2022-08-21T01:29:31.715Z,100.00
2022-08-21T01:32:00.336Z,100.00
2022-08-21T01:34:26.831Z,100.00
2022-08-21T01:36:53.246Z,100.00
2022-08-21T01:39:19.804Z,100.00
2022-08-21T01:41:46.445Z,100.00
2022-08-21T01:44:12.897Z,100.00
2022-08-21T01:46:39.318Z,100.00
2022-08-21T01:49:06.334Z,100.00
2022-08-21T01:51:33.130Z,100.00
2022-08-21T01:53:59.574Z,100.00
2022-08-21T01:56:26.950Z,100.00
2022-08-21T01:58:53.367Z,100.00
2022-08-21T02:01:19.863Z,100.00
2022-08-21T02:03:46.386Z,100.00
2022-08-21T02:06:15.813Z,100.00
2022-08-21T02:08:42.231Z,100.00
2022-08-21T02:11:08.647Z,100.00
2022-08-21T02:13:35.102Z,100.00
2022-08-21T02:16:01.494Z,100.00
2022-08-21T02:18:27.911Z,100.00
2022-08-21T02:20:56.302Z,100.00
2022-08-21T02:23:27.263Z,100.00
2022-08-21T02:26:05.548Z,100.00
2022-08-21T02:28:32.410Z,100.00
2022-08-21T02:30:59.408Z,100.00
2022-08-21T02:33:26.830Z,100.00
2022-08-21T02:35:54.167Z,100.00
2022-08-21T02:38:23.887Z,100.00
2022-08-21T02:40:51.879Z,100.00
2022-08-21T02:43:20.748Z,100.00
2022-08-21T02:45:47.754Z,100.00
2022-08-21T02:48:17.996Z,100.00
2022-08-21T02:50:49.678Z,100.00
2022-08-21T02:53:17.522Z,100.00
2022-08-21T02:55:49.336Z,100.00
2022-08-21T02:58:18.801Z,100.00
2022-08-21T03:00:45.741Z,100.00
2022-08-21T03:03:14.587Z,100.00
2022-08-21T03:05:41.311Z,100.00
2022-08-21T03:08:10.403Z,100.00
2022-08-21T03:10:38.660Z,100.00
2022-08-21T03:13:05.056Z,100.00
2022-08-21T03:15:32.302Z,100.00
2022-08-21T03:17:58.745Z,100.00
2022-08-21T03:20:27.186Z,100.00
2022-08-21T03:22:54.319Z,100.00
2022-08-21T03:25:39.989Z,100.00
2022-08-21T03:28:11.767Z,100.00
2022-08-21T03:30:40.663Z,100.00
2022-08-21T03:33:07.066Z,100.00
2022-08-21T03:35:33.537Z,100.00
2022-08-21T03:38:00.183Z,100.00
2022-08-21T03:40:26.900Z,100.00
2022-08-21T03:42:53.312Z,100.00
2022-08-21T03:45:20.443Z,100.00
2022-08-21T03:48:01.755Z,100.00
2022-08-21T03:50:31.522Z,100.00
2022-08-21T03:52:58.777Z,100.00
2022-08-21T03:55:26.304Z,100.00
2022-08-21T03:57:52.747Z,100.00
2022-08-21T04:00:19.963Z,100.00
2022-08-21T04:02:46.871Z,100.00
2022-08-21T04:05:15.192Z,100.00
2022-08-21T04:07:41.631Z,100.00
2022-08-21T04:10:08.869Z,100.00
2022-08-21T04:12:35.438Z,100.00
2022-08-21T04:15:02.803Z,100.00
2022-08-21T04:17:29.228Z,100.00
2022-08-21T04:19:55.958Z,100.00
2022-08-21T04:22:22.382Z,100.00
2022-08-21T04:24:48.865Z,100.00
2022-08-21T04:27:15.284Z,100.00
2022-08-21T04:29:41.829Z,100.00
2022-08-21T04:32:08.299Z,100.00
2022-08-21T04:34:34.763Z,100.00
2022-08-21T04:37:01.184Z,100.00
2022-08-21T04:39:29.833Z,100.00
2022-08-21T04:41:56.555Z,100.00
2022-08-21T04:44:22.958Z,100.00
2022-08-21T04:46:49.379Z,100.00
2022-08-21T04:49:15.810Z,100.00
2022-08-21T04:51:42.263Z,100.00
2022-08-21T04:54:12.677Z,100.00
2022-08-21T04:57:01.316Z,100.00
2022-08-21T04:59:33.216Z,100.00
2022-08-21T05:02:01.388Z,100.00
2022-08-21T05:04:31.112Z,100.00
2022-08-21T05:07:00.560Z,100.00
2022-08-21T05:09:27.951Z,100.00
2022-08-21T05:11:55.458Z,100.00
2022-08-21T05:14:21.864Z,100.00
2022-08-21T05:16:48.337Z,100.00
2022-08-21T05:19:14.789Z,100.00
2022-08-21T05:21:43.193Z,100.00
2022-08-21T05:24:10.233Z,100.00
2022-08-21T05:26:38.314Z,100.00
2022-08-21T05:29:12.962Z,100.00
2022-08-21T05:31:39.615Z,100.00
2022-08-21T05:34:07.249Z,100.00
2022-08-21T05:36:33.612Z,100.00
2022-08-21T05:39:00.039Z,100.00
2022-08-21T05:41:26.482Z,100.00
2022-08-21T05:43:52.947Z,100.00
2022-08-21T05:46:19.313Z,100.00
2022-08-21T05:48:45.716Z,100.00
2022-08-21T05:51:14.375Z,100.00
2022-08-21T05:53:43.011Z,100.00
2022-08-21T05:56:10.258Z,100.00
2022-08-21T05:58:36.633Z,100.00
2022-08-21T06:01:04.017Z,100.00
2022-08-21T06:03:33.228Z,100.00
2022-08-21T06:05:59.644Z,100.00
2022-08-21T06:08:26.403Z,100.00
2022-08-21T06:10:53.599Z,100.00
2022-08-21T06:13:21.304Z,100.00
2022-08-21T06:15:48.063Z,100.00
2022-08-21T06:18:14.515Z,100.00
2022-08-21T06:20:41.324Z,100.00
2022-08-21T06:23:08.109Z,100.00
2022-08-21T06:25:34.886Z,100.00
2022-08-21T06:28:09.736Z,100.00
2022-08-21T06:30:38.295Z,100.00
2022-08-21T06:33:05.323Z,100.00
2022-08-21T06:35:31.725Z,100.00
2022-08-21T06:37:58.705Z,100.00
2022-08-21T06:40:26.429Z,100.00
2022-08-21T06:42:52.949Z,100.00
2022-08-21T06:45:19.899Z,100.00
2022-08-21T06:47:46.319Z,100.00
2022-08-21T06:50:13.485Z,100.00
2022-08-21T06:52:40.248Z,100.00
2022-08-21T06:55:09.282Z,100.00
2022-08-21T06:57:36.007Z,100.00
2022-08-21T07:00:05.634Z,100.00
2022-08-21T07:02:34.157Z,100.00
2022-08-21T07:05:00.595Z,100.00
2022-08-21T07:07:26.983Z,100.00
2022-08-21T07:09:53.388Z,100.00
2022-08-21T07:12:20.512Z,100.00
2022-08-21T07:14:46.916Z,100.00
2022-08-21T07:17:13.303Z,100.00
2022-08-21T07:19:39.727Z,100.00
2022-08-21T07:22:06.161Z,100.00
2022-08-21T07:24:32.588Z,100.00
2022-08-21T07:26:59.028Z,100.00
2022-08-21T07:29:25.466Z,100.00
2022-08-21T07:31:51.860Z,100.00
2022-08-21T07:34:18.368Z,100.00
2022-08-21T07:36:45.012Z,100.00
2022-08-21T07:39:11.632Z,100.00
2022-08-21T07:41:38.517Z,100.00
2022-08-21T07:44:04.915Z,100.00
2022-08-21T07:46:33.132Z,100.00
2022-08-21T07:48:59.536Z,100.00
2022-08-21T07:51:27.916Z,100.00
2022-08-21T07:53:56.691Z,100.00
2022-08-21T07:56:23.172Z,100.00
2022-08-21T07:58:49.993Z,100.00
2022-08-21T08:01:16.449Z,100.00
2022-08-21T08:03:42.914Z,100.00
2022-08-21T08:06:13.125Z,100.00
2022-08-21T08:08:41.521Z,100.00
2022-08-21T08:11:11.235Z,100.00
2022-08-21T08:13:42.770Z,100.00
2022-08-21T08:16:09.386Z,100.00
2022-08-21T08:18:35.848Z,100.00
2022-08-21T08:21:02.282Z,100.00
2022-08-21T08:23:28.704Z,100.00
2022-08-21T08:25:55.110Z,100.00
2022-08-21T08:28:22.741Z,100.00
2022-08-21T08:30:50.438Z,100.00
2022-08-21T08:33:17.896Z,100.00
2022-08-21T08:35:48.343Z,100.00
2022-08-21T08:38:20.964Z,96.36
2022-08-21T08:41:13.932Z,94.91
2022-08-21T08:43:42.330Z,94.96
2022-08-21T08:46:14.342Z,95.32
2022-08-21T08:48:53.094Z,93.42
2022-08-21T08:52:00.356Z,91.19
2022-08-21T08:54:38.275Z,89.10
2022-08-21T08:57:08.967Z,85.22
2022-08-21T08:59:50.319Z,82.63
2022-08-21T09:02:17.700Z,81.58
2022-08-21T09:04:46.640Z,77.24
2022-08-21T09:07:28.945Z,77.96
2022-08-21T09:10:13.489Z,76.66
2022-08-21T09:13:14.175Z,78.16
2022-08-21T09:16:05.011Z,75.36
2022-08-21T09:18:46.352Z,74.60
2022-08-21T09:21:32.985Z,72.95
2022-08-21T09:24:28.128Z,74.22
2022-08-21T09:27:12.428Z,74.41
2022-08-21T09:29:44.723Z,74.52
2022-08-21T09:32:24.272Z,72.15
2022-08-21T09:35:09.961Z,73.11
2022-08-21T09:37:52.710Z,71.21
2022-08-21T09:40:44.871Z,71.42
2022-08-21T09:43:26.278Z,72.09
2022-08-21T09:46:08.681Z,71.61
2022-08-21T09:48:53.272Z,70.64
2022-08-21T09:51:28.648Z,72.84
2022-08-21T09:54:07.273Z,69.63
2022-08-21T09:57:13.275Z,71.51
2022-08-21T09:59:40.184Z,73.42
2022-08-21T10:02:27.943Z,73.25
2022-08-21T10:04:57.340Z,74.87
2022-08-21T10:07:25.599Z,71.10
2022-08-21T10:10:02.420Z,68.99
2022-08-21T10:12:55.282Z,66.64
2022-08-21T10:15:53.953Z,65.41
2022-08-21T10:18:39.487Z,64.84
2022-08-21T10:21:21.219Z,64.73
2022-08-21T10:24:02.035Z,65.09
2022-08-21T10:27:00.890Z,64.28
2022-08-21T10:29:56.950Z,62.26
2022-08-21T10:32:38.262Z,62.56
2022-08-21T10:35:34.994Z,61.55
2022-08-21T10:38:48.877Z,61.34
2022-08-21T10:41:36.971Z,58.62
2022-08-21T10:44:29.583Z,60.25
2022-08-21T10:47:09.772Z,60.27
2022-08-21T10:49:36.077Z,60.16
2022-08-21T10:52:21.252Z,57.28
2022-08-21T10:54:53.831Z,58.57
2022-08-21T10:57:32.257Z,57.62
2022-08-21T11:00:12.322Z,59.29
2022-08-21T11:02:48.143Z,58.93
2022-08-21T11:05:28.346Z,55.87
2022-08-21T11:07:59.634Z,55.57
2022-08-21T11:10:32.268Z,55.70
2022-08-21T11:13:34.233Z,55.54
2022-08-21T11:16:15.312Z,56.53
2022-08-21T11:18:50.620Z,56.06
2022-08-21T11:21:37.927Z,54.67
2022-08-21T11:24:29.324Z,53.82
2022-08-21T11:27:01.243Z,52.34
2022-08-21T11:29:37.868Z,52.33
2022-08-21T11:32:16.337Z,54.28
2022-08-21T11:35:01.383Z,51.68
2022-08-21T11:37:52.652Z,51.36
2022-08-21T11:40:45.768Z,51.21
2022-08-21T11:43:24.125Z,50.45
2022-08-21T11:46:01.728Z,50.32
2022-08-21T11:48:39.968Z,50.37
2022-08-21T11:51:17.351Z,49.00
2022-08-21T11:53:54.224Z,49.19
2022-08-21T11:56:39.881Z,50.10
2022-08-21T11:59:14.640Z,52.67
2022-08-21T12:01:45.792Z,52.55
2022-08-21T12:04:35.799Z,48.38
2022-08-21T12:07:30.422Z,48.36
2022-08-21T12:09:58.417Z,46.59
2022-08-21T12:12:35.994Z,46.93
2022-08-21T12:15:20.680Z,46.57
2022-08-21T12:18:01.794Z,46.10
2022-08-21T12:20:28.205Z,46.62
2022-08-21T12:23:15.927Z,47.51
2022-08-21T12:26:01.905Z,47.60
2022-08-21T12:28:30.018Z,46.75
2022-08-21T12:30:58.157Z,47.67
2022-08-21T12:33:38.583Z,47.40
2022-08-21T12:36:13.075Z,46.66
2022-08-21T12:38:55.552Z,46.75
2022-08-21T12:41:35.504Z,46.36
2022-08-21T12:44:06.545Z,46.43
2022-08-21T12:46:40.840Z,44.69
2022-08-21T12:49:15.013Z,42.00
2022-08-21T12:51:56.934Z,42.52
2022-08-21T12:54:26.441Z,42.74
2022-08-21T12:57:02.135Z,43.79
2022-08-21T12:59:29.495Z,40.89
2022-08-21T13:01:57.319Z,40.47
2022-08-21T13:04:35.137Z,39.39
2022-08-21T13:07:01.593Z,40.59
2022-08-21T13:09:30.953Z,39.89
2022-08-21T13:11:58.484Z,39.39
2022-08-21T13:14:32.885Z,39.78
2022-08-21T13:17:00.834Z,39.27
2022-08-21T13:19:28.097Z,41.48
2022-08-21T13:21:54.534Z,40.42
2022-08-21T13:24:42.917Z,39.27
2022-08-21T13:27:19.481Z,38.77
2022-08-21T13:29:50.336Z,36.86
2022-08-21T13:32:24.836Z,37.18
2022-08-21T13:34:54.001Z,37.67
2022-08-21T13:37:22.095Z,37.71
2022-08-21T13:39:53.473Z,37.02
2022-08-21T13:42:20.272Z,36.74
2022-08-21T13:44:48.080Z,37.59
2022-08-21T13:47:16.235Z,36.96
2022-08-21T13:49:50.313Z,36.45
2022-08-21T13:52:22.851Z,35.55
2022-08-21T13:55:10.358Z,35.75
2022-08-21T13:57:38.691Z,35.22
2022-08-21T14:00:11.414Z,37.48
2022-08-21T14:02:41.756Z,38.14
2022-08-21T14:05:09.175Z,38.06
2022-08-21T14:07:37.628Z,37.15
2022-08-21T14:10:20.724Z,36.03
2022-08-21T14:12:53.723Z,34.17
2022-08-21T14:15:25.187Z,35.28
2022-08-21T14:17:52.282Z,36.30
2022-08-21T14:20:33.852Z,34.49
2022-08-21T14:23:00.880Z,33.53
2022-08-21T14:25:31.590Z,32.32
2022-08-21T14:28:09.801Z,34.71
2022-08-21T14:30:39.884Z,36.69
2022-08-21T14:33:13.518Z,37.29
2022-08-21T14:35:40.645Z,38.23
2022-08-21T14:38:18.366Z,38.55
2022-08-21T14:40:48.012Z,39.55
2022-08-21T14:43:14.465Z,39.93
2022-08-21T14:45:41.644Z,38.18
2022-08-21T14:48:08.671Z,40.08
2022-08-21T14:50:35.092Z,41.07
2022-08-21T14:53:01.776Z,41.13
2022-08-21T14:55:28.372Z,44.26
2022-08-21T14:57:56.979Z,44.91
2022-08-21T15:00:27.161Z,45.29
2022-08-21T15:03:02.958Z,45.56
2022-08-21T15:05:32.899Z,46.71
2022-08-21T15:08:00.056Z,46.96
2022-08-21T15:10:26.609Z,47.92
2022-08-21T15:12:53.021Z,48.06
2022-08-21T15:15:19.473Z,47.34
2022-08-21T15:17:48.328Z,48.09
2022-08-21T15:20:15.194Z,48.11
2022-08-21T15:22:41.606Z,48.98
2022-08-21T15:25:14.343Z,49.77
2022-08-21T15:27:40.898Z,48.87
2022-08-21T15:30:08.019Z,48.48
2022-08-21T15:32:34.476Z,48.92
2022-08-21T15:35:01.115Z,49.73
2022-08-21T15:37:27.633Z,49.14
2022-08-21T15:39:54.678Z,49.09
2022-08-21T15:42:22.089Z,50.34
2022-08-21T15:44:48.578Z,49.18
2022-08-21T15:47:20.417Z,48.67
2022-08-21T15:49:46.839Z,48.36
2022-08-21T15:52:15.847Z,47.96
2022-08-21T15:54:42.388Z,47.32
2022-08-21T15:57:10.832Z,46.88
2022-08-21T15:59:41.417Z,47.34
2022-08-21T16:02:15.109Z,48.23
2022-08-21T16:04:41.655Z,47.69
2022-08-21T16:07:09.812Z,47.29
2022-08-21T16:09:36.665Z,46.21
2022-08-21T16:12:05.378Z,45.43
2022-08-21T16:14:32.584Z,47.15
2022-08-21T16:16:59.170Z,46.80
2022-08-21T16:19:27.380Z,46.98
2022-08-21T16:21:53.781Z,47.03
2022-08-21T16:24:20.204Z,47.12
2022-08-21T16:26:46.692Z,46.35
2022-08-21T16:29:26.155Z,45.79
2022-08-21T16:31:53.612Z,47.38
2022-08-21T16:34:20.793Z,50.16
2022-08-21T16:36:47.902Z,53.38
2022-08-21T16:39:14.444Z,51.81
2022-08-21T16:41:40.927Z,48.87
2022-08-21T16:44:07.705Z,48.54
2022-08-21T16:46:38.973Z,49.03
2022-08-21T16:49:05.405Z,49.31
2022-08-21T16:51:31.808Z,51.48
2022-08-21T16:53:58.783Z,53.43
2022-08-21T16:56:25.361Z,52.75
2022-08-21T16:58:53.446Z,51.65
2022-08-21T17:01:24.629Z,52.60
2022-08-21T17:03:51.660Z,55.35
2022-08-21T17:06:18.880Z,56.80
2022-08-21T17:08:45.574Z,58.12
2022-08-21T17:11:42.283Z,57.69
2022-08-21T17:14:14.603Z,59.04
2022-08-21T17:16:43.021Z,54.58
2022-08-21T17:19:09.745Z,54.69
2022-08-21T17:21:36.158Z,55.20
2022-08-21T17:24:02.689Z,54.53
2022-08-21T17:26:29.097Z,55.20
2022-08-21T17:28:55.576Z,54.94
2022-08-21T17:31:22.318Z,57.49
2022-08-21T17:33:52.736Z,56.50
2022-08-21T17:36:25.571Z,55.54
2022-08-21T17:38:52.377Z,60.27
2022-08-21T17:41:22.292Z,63.50
2022-08-21T17:43:49.427Z,68.15
2022-08-21T17:46:19.955Z,72.90
2022-08-21T17:48:47.457Z,80.63
2022-08-21T17:51:14.460Z,79.64
2022-08-21T17:53:41.076Z,77.08
2022-08-21T17:56:07.672Z,75.98
2022-08-21T17:58:34.901Z,82.36
2022-08-21T18:01:05.723Z,82.32
2022-08-21T18:03:38.324Z,78.42
2022-08-21T18:06:05.267Z,77.18
2022-08-21T18:08:32.615Z,78.30
2022-08-21T18:10:59.815Z,78.78
2022-08-21T18:13:29.629Z,80.05
2022-08-21T18:15:57.077Z,84.58
2022-08-21T18:18:25.188Z,85.28
2022-08-21T18:20:52.897Z,85.42
2022-08-21T18:23:19.784Z,90.74
2022-08-21T18:25:59.559Z,93.22
2022-08-21T18:28:26.244Z,94.30
2022-08-21T18:30:54.281Z,95.35
2022-08-21T18:33:21.374Z,94.77
2022-08-21T18:35:48.114Z,92.75
2022-08-21T18:38:21.014Z,94.12
2022-08-21T18:40:55.228Z,95.10
2022-08-21T18:43:23.007Z,89.21
2022-08-21T18:45:49.584Z,85.70
2022-08-21T18:48:17.803Z,90.70
2022-08-21T18:50:45.532Z,98.85
2022-08-21T18:53:18.225Z,100.00
2022-08-21T18:55:54.150Z,100.00
2022-08-21T18:58:23.736Z,100.00
2022-08-21T19:00:51.466Z,100.00
2022-08-21T19:03:24.367Z,100.00
2022-08-21T19:05:53.142Z,100.00
2022-08-21T19:08:21.976Z,100.00
2022-08-21T19:10:50.126Z,100.00
2022-08-21T19:13:18.375Z,100.00
2022-08-21T19:15:49.778Z,100.00
2022-08-21T19:18:17.600Z,100.00
2022-08-21T19:20:47.339Z,100.00
2022-08-21T19:23:16.625Z,100.00
2022-08-21T19:25:45.276Z,100.00
2022-08-21T19:28:17.316Z,100.00
2022-08-21T19:30:45.909Z,100.00
2022-08-21T19:33:23.663Z,100.00
2022-08-21T19:36:10.260Z,100.00
2022-08-21T19:38:37.613Z,100.00
2022-08-21T19:41:05.202Z,100.00
2022-08-21T19:43:33.146Z,100.00
2022-08-21T19:46:00.637Z,100.00
2022-08-21T19:48:27.150Z,100.00
2022-08-21T19:50:53.789Z,100.00
2022-08-21T19:53:20.223Z,100.00
2022-08-21T19:55:48.127Z,100.00
2022-08-21T19:58:33.160Z,100.00
2022-08-21T20:00:59.738Z,100.00
2022-08-21T20:03:26.304Z,100.00
2022-08-21T20:08:39.158Z,100.00
2022-08-21T20:11:05.737Z,100.00
2022-08-21T20:13:33.687Z,100.00
2022-08-21T20:16:07.822Z,100.00
2022-08-21T20:18:36.208Z,100.00
2022-08-21T20:21:04.743Z,94.84
2022-08-21T20:23:31.339Z,96.83
2022-08-21T20:26:00.937Z,96.85
2022-08-21T20:28:28.809Z,94.87
2022-08-21T20:30:55.794Z,96.01
2022-08-21T20:33:22.368Z,100.00
2022-08-21T20:35:49.978Z,100.00
2022-08-21T20:38:16.841Z,100.00
2022-08-21T20:40:43.828Z,100.00
2022-08-21T20:43:12.886Z,100.00
2022-08-21T20:45:39.719Z,100.00
2022-08-21T20:48:18.805Z,100.00
2022-08-21T20:50:55.696Z,100.00
2022-08-21T20:53:47.788Z,100.00
2022-08-21T20:56:33.160Z,100.00
2022-08-21T20:59:06.383Z,100.00
2022-08-21T21:01:33.394Z,100.00
2022-08-21T21:04:15.895Z,100.00
2022-08-21T21:06:49.966Z,100.00
2022-08-21T21:09:34.877Z,100.00
2022-08-21T21:12:11.027Z,100.00
2022-08-21T21:14:45.050Z,100.00
2022-08-21T21:17:28.256Z,100.00
2022-08-21T21:20:07.968Z,100.00
2022-08-21T21:22:41.988Z,100.00
2022-08-21T21:25:39.984Z,99.78
2022-08-21T21:28:12.856Z,100.00
2022-08-21T21:30:46.453Z,99.76
2022-08-21T21:33:16.292Z,99.83
2022-08-21T21:35:49.726Z,100.00
2022-08-21T21:38:23.066Z,100.00
2022-08-21T21:41:15.708Z,100.00
2022-08-21T21:43:51.027Z,100.00
2022-08-21T21:46:31.084Z,100.00
2022-08-21T21:49:05.464Z,100.00
2022-08-21T21:51:46.659Z,100.00
2022-08-21T21:54:45.852Z,100.00
2022-08-21T21:57:49.481Z,100.00
2022-08-21T22:00:24.293Z,100.00
2022-08-21T22:03:12.518Z,100.00
2022-08-21T22:05:58.020Z,100.00
2022-08-21T22:08:33.502Z,100.00
2022-08-21T22:11:28.606Z,100.00
2022-08-21T22:14:08.540Z,100.00
2022-08-21T22:16:35.914Z,100.00
2022-08-21T22:19:18.468Z,100.00
2022-08-21T22:22:00.336Z,100.00
2022-08-21T22:24:32.123Z,100.00
2022-08-21T22:27:09.180Z,100.00
2022-08-21T22:29:48.625Z,100.00
2022-08-21T22:32:45.729Z,100.00
2022-08-21T22:35:25.815Z,100.00
2022-08-21T22:37:57.705Z,100.00
2022-08-21T22:40:31.372Z,100.00
2022-08-21T22:42:58.645Z,100.00
2022-08-21T22:45:26.570Z,100.00
2022-08-21T22:47:53.964Z,100.00
2022-08-21T22:50:26.786Z,100.00
2022-08-21T22:53:00.399Z,100.00
2022-08-21T22:55:39.300Z,100.00
2022-08-21T22:58:19.664Z,100.00
2022-08-21T23:00:57.795Z,100.00
2022-08-21T23:03:42.142Z,100.00
2022-08-21T23:06:35.022Z,100.00
2022-08-21T23:09:03.384Z,100.00
2022-08-21T23:11:43.042Z,100.00
2022-08-21T23:14:14.200Z,100.00
2022-08-21T23:16:53.351Z,100.00
2022-08-21T23:19:38.463Z,100.00
2022-08-21T23:25:31.860Z,100.00
2022-08-21T23:28:09.238Z,100.00
2022-08-21T23:30:41.158Z,100.00
2022-08-21T23:33:50.566Z,100.00
2022-08-21T23:36:59.760Z,100.00
2022-08-21T23:39:54.611Z,100.00
2022-08-21T23:42:38.685Z,100.00
2022-08-21T23:45:39.408Z,100.00
2022-08-21T23:48:29.386Z,100.00
2022-08-21T23:51:03.597Z,100.00
2022-08-21T23:53:35.494Z,100.00
2022-08-21T23:56:31.551Z,100.00
2022-08-21T23:59:28.157Z,100.00
